KMGM

Montgomery Regional (Dannelly Field) Airport

Montgomery, Alabama, USA
KMGM 230540Z 2306/2406 22005KT P6SM OVC070 TEMPO 2306/2310 5SM BR OVC015 FM231000 23003KT 5SM BR OVC015 FM231400 23005KT 6SM -DZ OVC015 FM231800 23009G16KT P6SM OVC050 FM240000 25003KT P6SM OVC100
Issued Valid From Valid To
Apr-23 @ 05:40 UTC
(4 hours ago)
Apr-23 @ 06:00 UTC
(4 hours ago)
Apr-24 @ 06:00 UTC
(in 20 hours)
Apr-23 @ 06:00 to Apr-23 @ 10:00
KMGM 230540Z 2306/2406 22005KT P6SM OVC070
Wind Visibility Clouds
220° at 5 knots Greater than 6 miles
  • Overcast at 7,000' AGL
Temporary Apr-23 @ 06:00 to Apr-23 @ 10:00
TEMPO 2306/2310 5SM BR OVC015
Visibility Clouds Conditions
5 miles
  • Overcast at 1,500' AGL
  • Mist
From Apr-23 @ 10:00 to Apr-23 @ 14:00
FM231000 23003KT 5SM BR OVC015
Wind Visibility Clouds Conditions
230° at 3 knots 5 miles
  • Overcast at 1,500' AGL
  • Mist
From Apr-23 @ 14:00 to Apr-23 @ 18:00
FM231400 23005KT 6SM -DZ OVC015
Wind Visibility Clouds Conditions
230° at 5 knots 6 miles
  • Overcast at 1,500' AGL
  • Light Drizzle
From Apr-23 @ 18:00 to Apr-24 @ 00:00
FM231800 23009G16KT P6SM OVC050
Wind Visibility Clouds
230° at 9 knots
 Gusting to 16 knots
Greater than 6 miles
  • Overcast at 5,000' AGL
From Apr-24 @ 00:00 to Apr-24 @ 06:00
FM240000 25003KT P6SM OVC100
Wind Visibility Clouds
250° at 3 knots Greater than 6 miles
  • Overcast at 10,000' AGL
KMGM 230540Z 2306/2406 22005KT P6SM OVC070 TEMPO 2306/2310 5SM BR OVC015 FM231000 23003KT 5SM BR OVC015 FM231400 23005KT 6SM -DZ OVC015 FM231800 23009G16KT P6SM OVC050 FM240000 25003KT P6SM OVC100
Issued Apr-23 @ 05:40 UTC
(4 hours ago)
Valid From Apr-23 @ 06:00 UTC
(4 hours ago)
Valid To Apr-24 @ 06:00 UTC
(in 20 hours)
Apr-23 @ 06:00 - Apr-23 @ 10:00
Wind Visibility
220° at 5 knots Greater than 6 miles
Clouds
  • Overcast at 7,000' AGL
Temporary Apr-23 @ 06:00 - Apr-23 @ 10:00
Clouds
  • Overcast at 1,500' AGL
Conditions
  • Mist
From Apr-23 @ 10:00 - Apr-23 @ 14:00
Wind Visibility
230° at 3 knots 5 miles
Clouds
  • Overcast at 1,500' AGL
Conditions
  • Mist
From Apr-23 @ 14:00 - Apr-23 @ 18:00
Wind Visibility
230° at 5 knots 6 miles
Clouds
  • Overcast at 1,500' AGL
Conditions
  • Light Drizzle
From Apr-23 @ 18:00 - Apr-24 @ 00:00
Wind Visibility
230° at 9 knots
 Gusting to 16 knots
Greater than 6 miles
Clouds
  • Overcast at 5,000' AGL
From Apr-24 @ 00:00 - Apr-24 @ 06:00
Wind Visibility
250° at 3 knots Greater than 6 miles
Clouds
  • Overcast at 10,000' AGL